Smith Valley, Nevada Weather observations

Data are for 10 minute period ending at time listed.
 Day   Time   Solar   Ave.   Ave.  Ave.  Vector  Max.   Baro.   Total    
  of    of     Rad.   Air    Rel.  Wind   Wind   Wind  Press.  Precip.   
Year   Day            Temp.  Hum.  Speed  Dir.   Gust                    
2026   (PST)  Kw/m2    F      %     mph   deg.    mph    mb.     in.     
-------------------------------------------------------------------------
 245   20:10   0.00   63.2    26   16.5   222    22.7   851.9    0.00 
 245   20:20   0.00   63.0    27   15.7   222    22.5   852.1    0.00 
 245   20:30   0.00   63.1    26   16.3   222    24.5   852.0    0.00 
 245   20:40   0.00   63.0    26   14.3   217    22.0   852.2    0.00 
 245   20:50   0.00   62.8    25   13.0   216    19.2   852.3    0.00 
 245   21:00   0.00   62.9    24   12.7   218    18.9   852.3    0.00 
 245   21:10   0.00   62.9    23   12.8   216    22.1   852.3    0.00 
 245   21:20   0.00   63.4    22   14.8   213    20.3   852.3    0.00 
 245   21:30   0.00   63.5    20   13.1   209    18.3   852.4    0.00 
 245   21:40   0.00   63.3    21   11.5   210    16.9   852.4    0.00 
 245   21:50   0.00   62.9    21   10.2   215    18.5   852.3    0.00 
 245   22:00   0.00   62.9    20   12.2   215    19.1   852.2    0.00 
 245   22:10   0.00   63.2    20   12.8   211    19.1   852.2    0.00 
 245   22:20   0.00   63.0    19   10.3   214    16.2   852.2    0.00 
 245   22:30   0.00   62.5    19    9.6   209    14.9   852.3    0.00 
 245   22:40   0.00   62.7    18   10.4   218    15.7   852.2    0.00 
 245   22:50   0.00   61.7    20    8.4   219    12.7   852.2    0.00 
 245   23:00   0.00   61.2    20    8.8   219    13.6   852.2    0.00 
 245   23:10   0.00   60.7    21    8.0   220    11.3   852.2    0.00 
 245   23:20   0.00   59.8    23    7.8   223    13.0   852.2    0.00 
 245   23:30   0.00   59.5    23    8.2   224    12.5   852.2    0.00 
 245   23:40   0.00   60.4    22    8.6   222    13.8   852.2    0.00 
 245   23:50   0.00   60.3    22    8.2   228    11.8   852.2    0.00 
 246    0:00   0.00   61.0    21   11.5   231    17.5   852.2    0.00 
 246    0:10   0.00   61.4    21   10.9   229    15.3   852.3    0.00 
 246    0:20   0.00   60.9    22   11.6   230    16.5   852.2    0.00 
 246    0:30   0.00   61.1    23   11.7   232    16.6   852.2    0.00 
 246    0:40   0.00   61.0    23   11.5   232    17.5   852.2    0.00 
 246    0:50   0.00   61.3    23   12.6   234    19.3   852.3    0.00 
 246    1:00   0.00   60.9    24   12.3   235    18.0   852.3    0.00 
 246    1:10   0.00   60.6    24   13.1   236    16.6   852.0    0.00 
 246    1:20   0.00   60.3    25   12.0   236    16.5   851.9    0.00 
 246    1:30   0.00   60.3    25   13.1   234    18.3   851.9    0.00 
 246    1:40   0.00   60.5    24   13.8   234    20.9   851.7    0.00 
 246    1:50   0.00   60.3    25   12.8   229    17.7   851.7    0.00 
 246    2:00   0.00   60.2    25   11.9   231    17.5   851.7    0.00 
 246    2:10   0.00   60.2    25    9.1   230    14.1   851.7    0.00 
 246    2:20   0.00   59.5    26    6.9   222    13.5   851.7    0.00 
 246    2:30   0.00   59.5    26    5.1   219    11.3   851.8    0.00 
 246    2:40   0.00   60.3    25    8.9   218    18.0   851.8    0.00 
 246    2:50   0.00   61.1    24   10.6   213    19.3   851.9    0.00 
 246    3:00   0.00   61.3    25    8.3   204    15.5   852.0    0.00 
 246    3:10   0.00   59.0    29    5.6   136    13.5   852.0    0.00 
 246    3:20   0.00   56.9    31    5.4   119    11.0   851.9    0.00 
 246    3:30   0.00   57.6    30    6.2   127    12.8   851.8    0.00 
 246    3:40   0.00   55.1    37    5.1   106    10.6   851.7    0.00 
 246    3:50   0.00   55.2    34    2.7   134     7.5   851.8    0.00 
 246    4:00   0.00   56.0    35    4.8   129     8.8   851.8    0.00 
 246    4:10   0.00   55.1    35    2.4   150     6.8   851.9    0.00 
 246    4:20   0.00   55.7    34    4.7   169     9.3   851.9    0.00 
 246    4:30   0.00   56.6    32    4.3   205     8.9   851.9    0.00 
 246    4:40   0.00   55.9    33    3.9   182     6.4   851.8    0.00 
 246    4:50   0.00   54.3    35    2.7   217     4.1   851.8    0.00 
 246    5:00   0.00   53.1    38    3.1   191     4.7   851.8    0.00 
 246    5:10   0.00   51.2    42    2.5    56     4.8   851.8    0.00 
 246    5:20   0.00   49.8    43    1.5    53     2.9   851.8    0.00 
 246    5:30   0.00   48.7    45    2.4    53     3.8   851.8    0.00 
 246    5:40   0.02   47.4    46    1.5    58     2.6   851.8    0.00 
 246    5:50   0.07   49.9    44    1.7   204     3.9   851.8    0.00 
 246    6:00   0.09   50.2    43    1.1    26     3.2   851.9    0.00 
 246    6:10   0.12   49.9    49    2.9    71     5.7   851.9    0.00 
 246    6:20   0.16   51.5    44    0.7    37     1.8   852.0    0.00 
 246    6:30   0.20   54.8    42    1.8    85     4.4   852.1    0.00 
 246    6:40   0.26   58.9    33    2.1    56     4.6   852.1    0.00 
 246    6:50   0.34   61.3    31    2.2    54     4.3   852.2    0.00 
 246    7:00   0.40   62.9    28    2.1    77     4.6   852.1    0.00 
 246    7:10   0.46   64.3    28    2.2   102     7.7   852.0    0.00 
 246    7:20   0.50   65.4    28    3.0   118     7.5   851.8    0.00 
 246    7:30   0.34   65.6    27    3.4   244     9.0   851.7    0.00 
 246    7:40   0.31   65.1    29    2.7   121     6.0   851.7    0.00 
 246    7:50   0.34   65.2    29    3.5   324     5.8   851.6    0.00 
 246    8:00   0.44   65.6    27    4.0   302     6.4   851.4    0.00 
 246    8:10   0.38   65.9    27    3.7   322     6.5   851.4    0.00 
 246    8:20   0.40   66.1    26    2.4   310     5.2   851.2    0.00 
 246    8:30   0.54   67.2    24    2.5   253     4.7   851.2    0.00 
 246    8:40   0.67   68.3    24    4.6   232     9.2   851.1    0.00 
 246    8:50   0.73   68.8    25    4.1   146     9.6   851.0    0.00 
 246    9:00   0.79   69.7    24    9.4   187    22.9   850.9    0.00 
 246    9:10   0.82   70.1    24   10.9   202    26.2   851.0    0.00 
 246    9:20   0.84   70.7    23   12.4   201    19.5   851.0    0.00 
 246    9:30   0.89   71.1    24    9.3   206    15.4   850.9    0.00 
 246    9:40   0.89   72.1    22   11.5   205    20.0   850.8    0.00 
 246    9:50   0.83   71.9    22   13.7   201    19.7   850.8    0.00 
 246   10:00   0.91   72.2    22   13.4   204    21.8   850.8    0.00 
 246   10:10   0.94   72.6    23   14.6   210    22.3   850.7    0.00 
 246   10:20   0.95   73.2    22   14.9   198    24.1   850.7    0.00 
 246   10:30   0.96   73.6    22   16.9   200    23.6   850.7    0.00 
 246   10:40   0.97   73.6    22   12.9   205    21.0   850.6    0.00 
 246   10:50   0.98   74.0    22   14.4   209    25.1   850.5    0.00 
 246   11:00   0.99   74.3    22   17.0   215    23.6   850.3    0.00 
 246   11:10   1.00   74.4    22   14.9   218    21.6   850.1    0.00 
 246   11:20   1.02   74.6    23   14.5   220    24.7   850.0    0.00 
 246   11:30   1.02   74.8    22   14.3   225    22.7   849.8    0.00 
 246   11:40   0.99   75.3    23   14.8   225    22.8   849.7    0.00 
 246   11:50   1.02   75.7    22   11.8   221    25.5   849.6    0.00 
 246   12:00   1.02   76.0    22   15.3   228    22.5   849.4    0.00 
 246   12:10   1.02   75.6    22   17.2   222    26.6   849.4    0.00 
 246   12:20   1.01   75.8    22   15.8   233    21.7   849.3    0.00 
 246   12:30   1.01   76.2    22   15.3   221    24.1   849.3    0.00 
 246   12:40   1.00   76.2    22   15.6   218    25.1   849.2    0.00 
 246   12:50   0.99   76.1    22   10.8   229    16.8   849.1    0.00 
 246   13:00   0.98   76.3    22   16.2   217    28.3   849.0    0.00 
 246   13:10   0.97   76.0    22   19.9   210    29.2   849.0    0.00 
 246   13:20   0.96   76.0    22   16.9   234    27.5   848.8    0.00 
 246   13:30   0.94   75.8    23   17.7   233    26.5   848.7    0.00 
 246   13:40   0.92   76.3    22   15.9   230    26.8   848.6    0.00 
 246   13:50   0.90   76.0    22   14.2   210    25.9   848.7    0.00 
 246   14:00   0.88   76.6    22   15.9   205    28.9   848.6    0.00 
 246   14:10   0.85   76.0    23   17.0   224    24.7   848.6    0.00 
 246   14:20   0.83   75.7    23   16.6   230    26.3   848.5    0.00 
 246   14:30   0.80   75.8    24   16.9   234    25.6   848.4    0.00 
 246   14:40   0.77   75.5    24   17.2   242    25.7   848.4    0.00 
 246   14:50   0.74   75.3    25   16.2   238    30.1   848.3    0.00 
 246   15:00   0.71   75.4    25   17.4   238    25.1   848.3    0.00 
 246   15:10   0.68   74.9    26   16.1   235    25.7   848.3    0.00 
 246   15:20   0.65   74.1    27   17.5   246    24.9   848.3    0.00 
 246   15:30   0.62   73.5    28   18.2   236    24.6   848.3    0.00 
 246   15:40   0.58   73.0    28   16.9   236    28.5   848.4    0.00 
 246   15:50   0.55   73.5    28   13.6   241    21.0   848.4    0.00 
 246   16:00   0.51   72.8    29   14.8   215    21.4   848.4    0.00 
 246   16:10   0.48   72.3    30   15.5   231    22.1   848.4    0.00 
 246   16:20   0.44   71.5    30   15.6   224    22.7   848.4    0.00 
 246   16:30   0.40   70.7    31   14.8   227    23.5   848.4    0.00 
 246   16:40   0.33   70.3    32   15.6   237    27.0   848.3    0.00 
 246   16:50   0.33   69.5    33   13.8   237    22.8   848.2    0.00 
 246   17:00   0.23   69.3    33   14.9   241    27.4   848.1    0.00 
 246   17:10   0.07   67.6    35   14.7   239    20.0   848.2    0.00 
 246   17:20   0.04   66.8    36   14.1   242    22.3   848.1    0.00 
 246   17:30   0.04   66.3    37   12.5   233    17.8   848.2    0.00 
 246   17:40   0.04   66.2    37   12.7   239    20.6   848.1    0.00 
 246   17:50   0.03   66.1    37   14.8   229    26.3   848.1    0.00 
 246   18:00   0.02   66.0    37   12.9   235    20.9   848.0    0.00 
 246   18:10   0.01   65.5    38   11.2   232    18.0   848.0    0.00 
 246   18:20   0.01   65.2    39    9.4   236    16.4   848.1    0.00 
 246   18:30   0.00   64.8    40   10.3   237    15.3   848.1    0.00 
 246   18:40   0.00   64.7    40   10.2   229    15.9   848.0    0.00 
 246   18:50   0.00   64.1    40   10.9   225    17.3   848.0    0.00 
 246   19:00   0.00   64.2    39   13.5   222    19.3   847.9    0.00 
 246   19:10   0.00   64.6    38   11.8   222    17.8   848.0    0.00 
 246   19:20   0.00   64.5    39   10.9   226    16.3   848.1    0.00 
 246   19:30   0.00   64.2    39    8.8   229    17.3   848.2    0.00 
 246   19:40   0.00   63.9    39    9.2   228    19.9   848.3    0.00 
 246   19:50   0.00   64.3    38   12.0   209    19.4   848.4    0.00 
 246   20:00   0.00   64.1    38   12.6   222    21.8   848.4    0.00 

Return to Smith Valley graphs page.


Western Regional Climate Center,wrcc@dri.edu